sensor_id;sensor_type;location;lat;lon;timestamp;P1;durP1;ratioP1;P2;durP2;ratioP2
36253;SDS011;22291;52.250;21.228;2023-02-18T00:01:36;76.40;;;71.35;;
36253;SDS011;22291;52.250;21.228;2023-02-18T00:04:02;71.40;;;66.50;;
36253;SDS011;22291;52.250;21.228;2023-02-18T00:06:33;71.85;;;66.90;;
36253;SDS011;22291;52.250;21.228;2023-02-18T00:09:02;38.35;;;35.65;;
36253;SDS011;22291;52.250;21.228;2023-02-18T00:11:34;63.50;;;58.98;;
36253;SDS011;22291;52.250;21.228;2023-02-18T00:14:03;15.48;;;13.80;;
36253;SDS011;22291;52.250;21.228;2023-02-18T00:16:34;78.05;;;72.72;;
36253;SDS011;22291;52.250;21.228;2023-02-18T00:19:01;78.70;;;73.25;;
36253;SDS011;22291;52.250;21.228;2023-02-18T00:21:31;79.47;;;73.95;;
36253;SDS011;22291;52.250;21.228;2023-02-18T00:24:04;80.28;;;74.70;;
36253;SDS011;22291;52.250;21.228;2023-02-18T00:26:32;80.22;;;74.80;;
36253;SDS011;22291;52.250;21.228;2023-02-18T00:29:01;56.63;;;52.83;;
36253;SDS011;22291;52.250;21.228;2023-02-18T00:31:30;78.70;;;73.25;;
36253;SDS011;22291;52.250;21.228;2023-02-18T00:34:00;77.62;;;72.15;;
36253;SDS011;22291;52.250;21.228;2023-02-18T00:36:31;78.30;;;72.32;;
36253;SDS011;22291;52.250;21.228;2023-02-18T00:39:02;77.60;;;72.20;;
36253;SDS011;22291;52.250;21.228;2023-02-18T00:41:32;79.15;;;73.67;;
36253;SDS011;22291;52.250;21.228;2023-02-18T00:44:04;78.90;;;73.25;;
36253;SDS011;22291;52.250;21.228;2023-02-18T00:46:31;77.27;;;71.60;;
36253;SDS011;22291;52.250;21.228;2023-02-18T00:49:01;77.75;;;72.55;;
36253;SDS011;22291;52.250;21.228;2023-02-18T00:51:31;78.92;;;73.75;;
36253;SDS011;22291;52.250;21.228;2023-02-18T00:53:59;78.60;;;73.17;;
36253;SDS011;22291;52.250;21.228;2023-02-18T00:56:27;78.28;;;73.05;;
36253;SDS011;22291;52.250;21.228;2023-02-18T00:58:53;78.40;;;73.10;;
36253;SDS011;22291;52.250;21.228;2023-02-18T01:01:20;80.07;;;74.17;;
36253;SDS011;22291;52.250;21.228;2023-02-18T01:03:46;80.87;;;75.30;;
36253;SDS011;22291;52.250;21.228;2023-02-18T01:06:19;80.75;;;74.72;;
36253;SDS011;22291;52.250;21.228;2023-02-18T01:08:48;77.40;;;72.05;;
36253;SDS011;22291;52.250;21.228;2023-02-18T01:11:16;79.58;;;74.22;;
36253;SDS011;22291;52.250;21.228;2023-02-18T01:13:43;76.42;;;70.70;;
36253;SDS011;22291;52.250;21.228;2023-02-18T01:16:10;7.37;;;2.35;;
36253;SDS011;22291;52.250;21.228;2023-02-18T01:18:37;10.58;;;3.47;;
36253;SDS011;22291;52.250;21.228;2023-02-18T01:21:07;17.30;;;15.68;;
36253;SDS011;22291;52.250;21.228;2023-02-18T01:26:05;8.65;;;3.35;;
36253;SDS011;22291;52.250;21.228;2023-02-18T01:28:34;6.97;;;1.98;;
36253;SDS011;22291;52.250;21.228;2023-02-18T01:31:03;4.22;;;1.95;;
36253;SDS011;22291;52.250;21.228;2023-02-18T01:33:34;18.98;;;17.67;;
36253;SDS011;22291;52.250;21.228;2023-02-18T01:36:04;21.75;;;20.02;;
36253;SDS011;22291;52.250;21.228;2023-02-18T01:38:31;5.95;;;1.42;;
36253;SDS011;22291;52.250;21.228;2023-02-18T01:40:59;7.35;;;2.52;;
36253;SDS011;22291;52.250;21.228;2023-02-18T01:43:29;7.55;;;6.47;;
36253;SDS011;22291;52.250;21.228;2023-02-18T01:46:05;12.50;;;11.12;;
36253;SDS011;22291;52.250;21.228;2023-02-18T01:51:27;8.10;;;2.20;;
36253;SDS011;22291;52.250;21.228;2023-02-18T01:59:32;35.00;;;32.50;;
36253;SDS011;22291;52.250;21.228;2023-02-18T02:02:02;78.80;;;72.40;;
36253;SDS011;22291;52.250;21.228;2023-02-18T02:04:36;77.27;;;72.05;;
36253;SDS011;22291;52.250;21.228;2023-02-18T02:07:03;79.47;;;73.87;;
36253;SDS011;22291;52.250;21.228;2023-02-18T02:09:30;78.17;;;72.80;;
36253;SDS011;22291;52.250;21.228;2023-02-18T02:20:47;59.93;;;55.45;;
36253;SDS011;22291;52.250;21.228;2023-02-18T02:26:42;77.75;;;72.45;;
36253;SDS011;22291;52.250;21.228;2023-02-18T02:32:48;77.80;;;72.55;;
36253;SDS011;22291;52.250;21.228;2023-02-18T02:35:23;76.90;;;71.72;;
36253;SDS011;22291;52.250;21.228;2023-02-18T02:38:14;79.05;;;73.30;;
36253;SDS011;22291;52.250;21.228;2023-02-18T02:40:58;77.90;;;72.45;;
36253;SDS011;22291;52.250;21.228;2023-02-18T02:43:46;80.00;;;74.27;;
36253;SDS011;22291;52.250;21.228;2023-02-18T02:46:36;78.33;;;73.02;;
36253;SDS011;22291;52.250;21.228;2023-02-18T02:52:20;78.62;;;73.20;;
36253;SDS011;22291;52.250;21.228;2023-02-18T02:54:50;80.40;;;74.67;;
36253;SDS011;22291;52.250;21.228;2023-02-18T02:59:55;76.47;;;71.02;;
36253;SDS011;22291;52.250;21.228;2023-02-18T03:02:28;77.85;;;72.32;;
36253;SDS011;22291;52.250;21.228;2023-02-18T03:05:18;77.03;;;71.92;;
36253;SDS011;22291;52.250;21.228;2023-02-18T03:13:37;79.27;;;73.45;;
36253;SDS011;22291;52.250;21.228;2023-02-18T03:16:35;77.65;;;72.55;;
36253;SDS011;22291;52.250;21.228;2023-02-18T03:19:22;78.25;;;72.95;;
36253;SDS011;22291;52.250;21.228;2023-02-18T03:22:16;78.45;;;72.37;;
36253;SDS011;22291;52.250;21.228;2023-02-18T03:24:51;5.10;;;1.55;;
36253;SDS011;22291;52.250;21.228;2023-02-18T03:27:32;5.22;;;1.70;;
36253;SDS011;22291;52.250;21.228;2023-02-18T03:30:23;11.48;;;2.42;;
36253;SDS011;22291;52.250;21.228;2023-02-18T03:32:56;5.65;;;1.47;;
36253;SDS011;22291;52.250;21.228;2023-02-18T03:35:27;9.18;;;1.80;;
36253;SDS011;22291;52.250;21.228;2023-02-18T03:37:59;8.63;;;1.90;;
36253;SDS011;22291;52.250;21.228;2023-02-18T03:40:47;11.78;;;2.10;;
36253;SDS011;22291;52.250;21.228;2023-02-18T03:43:17;11.00;;;1.90;;
36253;SDS011;22291;52.250;21.228;2023-02-18T03:45:45;5.70;;;1.40;;
36253;SDS011;22291;52.250;21.228;2023-02-18T03:48:16;8.75;;;3.15;;
36253;SDS011;22291;52.250;21.228;2023-02-18T03:50:43;9.50;;;1.82;;
36253;SDS011;22291;52.250;21.228;2023-02-18T03:53:09;4.22;;;1.52;;
36253;SDS011;22291;52.250;21.228;2023-02-18T03:55:35;9.00;;;1.85;;
36253;SDS011;22291;52.250;21.228;2023-02-18T03:58:01;18.17;;;2.47;;
36253;SDS011;22291;52.250;21.228;2023-02-18T04:00:30;11.68;;;1.95;;
36253;SDS011;22291;52.250;21.228;2023-02-18T04:02:58;6.58;;;1.70;;
36253;SDS011;22291;52.250;21.228;2023-02-18T04:05:25;5.03;;;1.92;;
36253;SDS011;22291;52.250;21.228;2023-02-18T04:07:54;9.80;;;2.25;;
36253;SDS011;22291;52.250;21.228;2023-02-18T04:10:22;11.33;;;1.45;;
36253;SDS011;22291;52.250;21.228;2023-02-18T04:12:50;8.35;;;2.50;;
36253;SDS011;22291;52.250;21.228;2023-02-18T04:15:17;5.35;;;2.10;;
36253;SDS011;22291;52.250;21.228;2023-02-18T04:17:44;10.80;;;3.22;;
36253;SDS011;22291;52.250;21.228;2023-02-18T04:20:11;8.48;;;1.70;;
36253;SDS011;22291;52.250;21.228;2023-02-18T04:22:38;4.12;;;1.80;;
36253;SDS011;22291;52.250;21.228;2023-02-18T04:25:06;8.00;;;1.47;;
36253;SDS011;22291;52.250;21.228;2023-02-18T04:27:35;5.60;;;1.90;;
36253;SDS011;22291;52.250;21.228;2023-02-18T04:30:03;12.58;;;3.20;;
36253;SDS011;22291;52.250;21.228;2023-02-18T04:32:31;8.78;;;1.92;;
36253;SDS011;22291;52.250;21.228;2023-02-18T04:34:58;10.30;;;1.80;;
36253;SDS011;22291;52.250;21.228;2023-02-18T04:37:25;8.18;;;1.95;;
36253;SDS011;22291;52.250;21.228;2023-02-18T04:39:52;13.38;;;3.33;;
36253;SDS011;22291;52.250;21.228;2023-02-18T04:42:23;10.18;;;2.17;;
36253;SDS011;22291;52.250;21.228;2023-02-18T04:44:51;19.42;;;3.00;;
36253;SDS011;22291;52.250;21.228;2023-02-18T04:47:19;8.65;;;1.80;;
36253;SDS011;22291;52.250;21.228;2023-02-18T04:49:45;11.50;;;2.65;;
36253;SDS011;22291;52.250;21.228;2023-02-18T04:52:12;10.15;;;1.82;;
36253;SDS011;22291;52.250;21.228;2023-02-18T04:54:39;6.12;;;1.85;;
36253;SDS011;22291;52.250;21.228;2023-02-18T04:57:10;9.75;;;2.08;;
36253;SDS011;22291;52.250;21.228;2023-02-18T04:59:36;10.85;;;1.62;;
36253;SDS011;22291;52.250;21.228;2023-02-18T05:02:04;11.55;;;2.55;;
36253;SDS011;22291;52.250;21.228;2023-02-18T05:04:36;9.98;;;2.22;;
36253;SDS011;22291;52.250;21.228;2023-02-18T05:07:02;10.08;;;1.98;;
36253;SDS011;22291;52.250;21.228;2023-02-18T05:09:28;10.88;;;2.42;;
36253;SDS011;22291;52.250;21.228;2023-02-18T05:11:54;15.98;;;3.33;;
36253;SDS011;22291;52.250;21.228;2023-02-18T05:14:22;8.60;;;1.60;;
36253;SDS011;22291;52.250;21.228;2023-02-18T05:16:48;9.40;;;2.45;;
36253;SDS011;22291;52.250;21.228;2023-02-18T05:19:14;7.58;;;2.45;;
36253;SDS011;22291;52.250;21.228;2023-02-18T05:21:42;6.72;;;6.12;;
36253;SDS011;22291;52.250;21.228;2023-02-18T05:24:10;10.15;;;5.20;;
36253;SDS011;22291;52.250;21.228;2023-02-18T05:26:38;6.90;;;1.95;;
36253;SDS011;22291;52.250;21.228;2023-02-18T05:29:04;13.13;;;2.87;;
36253;SDS011;22291;52.250;21.228;2023-02-18T05:31:32;7.85;;;1.80;;
36253;SDS011;22291;52.250;21.228;2023-02-18T05:33:58;10.48;;;1.95;;
36253;SDS011;22291;52.250;21.228;2023-02-18T05:36:26;10.90;;;2.33;;
36253;SDS011;22291;52.250;21.228;2023-02-18T05:38:54;7.50;;;5.00;;
36253;SDS011;22291;52.250;21.228;2023-02-18T05:41:20;41.68;;;38.25;;
36253;SDS011;22291;52.250;21.228;2023-02-18T05:43:48;10.63;;;9.68;;
36253;SDS011;22291;52.250;21.228;2023-02-18T05:46:34;23.55;;;20.97;;
36253;SDS011;22291;52.250;21.228;2023-02-18T05:49:01;17.37;;;14.87;;
36253;SDS011;22291;52.250;21.228;2023-02-18T05:51:29;15.13;;;13.62;;
36253;SDS011;22291;52.250;21.228;2023-02-18T05:53:58;39.90;;;36.77;;
36253;SDS011;22291;52.250;21.228;2023-02-18T05:56:25;52.15;;;47.83;;
36253;SDS011;22291;52.250;21.228;2023-02-18T05:58:52;73.05;;;67.90;;
36253;SDS011;22291;52.250;21.228;2023-02-18T06:01:20;58.58;;;54.08;;
36253;SDS011;22291;52.250;21.228;2023-02-18T06:03:48;9.73;;;5.53;;
36253;SDS011;22291;52.250;21.228;2023-02-18T06:06:15;8.55;;;7.00;;
36253;SDS011;22291;52.250;21.228;2023-02-18T06:08:41;10.85;;;3.17;;
36253;SDS011;22291;52.250;21.228;2023-02-18T06:11:09;5.60;;;1.57;;
36253;SDS011;22291;52.250;21.228;2023-02-18T06:13:37;11.78;;;3.52;;
36253;SDS011;22291;52.250;21.228;2023-02-18T06:16:05;8.85;;;3.42;;
36253;SDS011;22291;52.250;21.228;2023-02-18T06:18:32;8.33;;;7.58;;
36253;SDS011;22291;52.250;21.228;2023-02-18T06:20:58;10.93;;;9.63;;
36253;SDS011;22291;52.250;21.228;2023-02-18T06:23:24;35.35;;;33.15;;
36253;SDS011;22291;52.250;21.228;2023-02-18T06:25:54;56.65;;;52.78;;
36253;SDS011;22291;52.250;21.228;2023-02-18T06:28:21;50.40;;;46.50;;
36253;SDS011;22291;52.250;21.228;2023-02-18T06:30:47;71.85;;;66.12;;
36253;SDS011;22291;52.250;21.228;2023-02-18T06:33:16;23.95;;;22.05;;
36253;SDS011;22291;52.250;21.228;2023-02-18T06:35:54;26.42;;;24.18;;
36253;SDS011;22291;52.250;21.228;2023-02-18T06:38:26;25.55;;;23.60;;
36253;SDS011;22291;52.250;21.228;2023-02-18T06:40:54;68.33;;;63.28;;
36253;SDS011;22291;52.250;21.228;2023-02-18T06:43:21;77.25;;;71.65;;
36253;SDS011;22291;52.250;21.228;2023-02-18T06:45:50;76.30;;;70.85;;
36253;SDS011;22291;52.250;21.228;2023-02-18T06:48:18;77.72;;;72.03;;
36253;SDS011;22291;52.250;21.228;2023-02-18T06:50:47;73.17;;;67.30;;
36253;SDS011;22291;52.250;21.228;2023-02-18T06:53:15;76.87;;;71.37;;
36253;SDS011;22291;52.250;21.228;2023-02-18T06:55:44;71.82;;;66.72;;
36253;SDS011;22291;52.250;21.228;2023-02-18T06:58:11;66.92;;;62.33;;
36253;SDS011;22291;52.250;21.228;2023-02-18T07:00:40;69.65;;;64.62;;
36253;SDS011;22291;52.250;21.228;2023-02-18T07:03:10;80.00;;;73.92;;
36253;SDS011;22291;52.250;21.228;2023-02-18T07:05:42;78.85;;;73.07;;
36253;SDS011;22291;52.250;21.228;2023-02-18T07:08:10;76.80;;;71.25;;
36253;SDS011;22291;52.250;21.228;2023-02-18T07:10:37;79.65;;;74.00;;
36253;SDS011;22291;52.250;21.228;2023-02-18T07:13:05;78.52;;;72.62;;
36253;SDS011;22291;52.250;21.228;2023-02-18T07:15:32;78.05;;;72.42;;
36253;SDS011;22291;52.250;21.228;2023-02-18T07:18:00;77.70;;;72.40;;
36253;SDS011;22291;52.250;21.228;2023-02-18T07:20:28;78.10;;;72.22;;
36253;SDS011;22291;52.250;21.228;2023-02-18T07:22:56;79.20;;;73.62;;
36253;SDS011;22291;52.250;21.228;2023-02-18T07:25:25;80.12;;;74.27;;
36253;SDS011;22291;52.250;21.228;2023-02-18T07:27:52;83.13;;;76.37;;
36253;SDS011;22291;52.250;21.228;2023-02-18T07:30:19;78.20;;;72.30;;
36253;SDS011;22291;52.250;21.228;2023-02-18T07:32:46;80.00;;;74.50;;
36253;SDS011;22291;52.250;21.228;2023-02-18T07:35:14;79.35;;;73.40;;
36253;SDS011;22291;52.250;21.228;2023-02-18T07:37:43;77.58;;;71.90;;
36253;SDS011;22291;52.250;21.228;2023-02-18T07:40:16;17.15;;;2.62;;
36253;SDS011;22291;52.250;21.228;2023-02-18T07:42:45;8.58;;;3.47;;
36253;SDS011;22291;52.250;21.228;2023-02-18T07:45:16;13.18;;;2.60;;
36253;SDS011;22291;52.250;21.228;2023-02-18T07:47:44;9.98;;;3.25;;
36253;SDS011;22291;52.250;21.228;2023-02-18T07:50:10;12.33;;;9.20;;
36253;SDS011;22291;52.250;21.228;2023-02-18T07:52:37;70.83;;;66.07;;
36253;SDS011;22291;52.250;21.228;2023-02-18T07:55:06;11.20;;;5.53;;
36253;SDS011;22291;52.250;21.228;2023-02-18T07:57:33;9.63;;;4.87;;
36253;SDS011;22291;52.250;21.228;2023-02-18T08:00:05;11.90;;;3.25;;
36253;SDS011;22291;52.250;21.228;2023-02-18T08:02:35;13.13;;;9.40;;
36253;SDS011;22291;52.250;21.228;2023-02-18T08:05:01;79.00;;;73.55;;
36253;SDS011;22291;52.250;21.228;2023-02-18T08:07:29;78.52;;;72.82;;
36253;SDS011;22291;52.250;21.228;2023-02-18T08:09:55;78.90;;;73.62;;
36253;SDS011;22291;52.250;21.228;2023-02-18T08:12:21;77.27;;;72.03;;
36253;SDS011;22291;52.250;21.228;2023-02-18T08:14:49;78.45;;;73.15;;
36253;SDS011;22291;52.250;21.228;2023-02-18T08:17:17;79.62;;;73.75;;
36253;SDS011;22291;52.250;21.228;2023-02-18T08:19:43;80.55;;;74.30;;
36253;SDS011;22291;52.250;21.228;2023-02-18T08:22:11;77.42;;;72.00;;
36253;SDS011;22291;52.250;21.228;2023-02-18T08:24:39;79.47;;;73.75;;
36253;SDS011;22291;52.250;21.228;2023-02-18T08:27:05;78.05;;;72.40;;
36253;SDS011;22291;52.250;21.228;2023-02-18T08:29:33;84.37;;;78.50;;
36253;SDS011;22291;52.250;21.228;2023-02-18T08:31:59;78.52;;;72.85;;
36253;SDS011;22291;52.250;21.228;2023-02-18T08:34:26;6.70;;;2.08;;
36253;SDS011;22291;52.250;21.228;2023-02-18T08:36:53;8.68;;;1.92;;
36253;SDS011;22291;52.250;21.228;2023-02-18T08:39:21;8.25;;;1.90;;
36253;SDS011;22291;52.250;21.228;2023-02-18T08:41:48;11.90;;;2.33;;
36253;SDS011;22291;52.250;21.228;2023-02-18T08:44:15;15.40;;;2.40;;
36253;SDS011;22291;52.250;21.228;2023-02-18T08:46:43;10.23;;;2.20;;
36253;SDS011;22291;52.250;21.228;2023-02-18T08:49:12;15.45;;;9.13;;
36253;SDS011;22291;52.250;21.228;2023-02-18T08:51:40;79.12;;;73.57;;
36253;SDS011;22291;52.250;21.228;2023-02-18T08:54:07;3.65;;;1.50;;
36253;SDS011;22291;52.250;21.228;2023-02-18T08:56:33;13.00;;;2.58;;
36253;SDS011;22291;52.250;21.228;2023-02-18T08:58:59;10.88;;;3.65;;
36253;SDS011;22291;52.250;21.228;2023-02-18T09:01:25;12.30;;;2.12;;
36253;SDS011;22291;52.250;21.228;2023-02-18T09:03:55;7.12;;;2.80;;
36253;SDS011;22291;52.250;21.228;2023-02-18T09:06:23;67.65;;;63.00;;
36253;SDS011;22291;52.250;21.228;2023-02-18T09:08:51;6.12;;;2.08;;
36253;SDS011;22291;52.250;21.228;2023-02-18T09:11:19;5.12;;;2.00;;
36253;SDS011;22291;52.250;21.228;2023-02-18T09:13:46;7.50;;;4.30;;
36253;SDS011;22291;52.250;21.228;2023-02-18T09:16:14;30.17;;;27.98;;
36253;SDS011;22291;52.250;21.228;2023-02-18T09:18:44;10.85;;;4.97;;
36253;SDS011;22291;52.250;21.228;2023-02-18T09:21:14;11.57;;;2.50;;
36253;SDS011;22291;52.250;21.228;2023-02-18T09:23:45;7.08;;;3.15;;
36253;SDS011;22291;52.250;21.228;2023-02-18T09:26:15;12.73;;;10.93;;
36253;SDS011;22291;52.250;21.228;2023-02-18T09:28:52;15.18;;;9.33;;
36253;SDS011;22291;52.250;21.228;2023-02-18T09:31:22;63.60;;;59.08;;
36253;SDS011;22291;52.250;21.228;2023-02-18T09:33:53;52.53;;;48.92;;
36253;SDS011;22291;52.250;21.228;2023-02-18T09:36:25;15.70;;;5.53;;
36253;SDS011;22291;52.250;21.228;2023-02-18T09:47:12;47.60;;;43.92;;
36253;SDS011;22291;52.250;21.228;2023-02-18T09:49:55;31.70;;;29.15;;
36253;SDS011;22291;52.250;21.228;2023-02-18T09:52:33;77.65;;;72.10;;
36253;SDS011;22291;52.250;21.228;2023-02-18T09:55:14;12.13;;;3.52;;
36253;SDS011;22291;52.250;21.228;2023-02-18T09:57:55;78.22;;;72.82;;
36253;SDS011;22291;52.250;21.228;2023-02-18T10:00:37;45.92;;;41.50;;
36253;SDS011;22291;52.250;21.228;2023-02-18T10:03:11;67.62;;;62.35;;
36253;SDS011;22291;52.250;21.228;2023-02-18T10:05:56;67.90;;;62.62;;
36253;SDS011;22291;52.250;21.228;2023-02-18T10:08:25;78.57;;;73.00;;
36253;SDS011;22291;52.250;21.228;2023-02-18T10:10:55;10.03;;;3.10;;
36253;SDS011;22291;52.250;21.228;2023-02-18T10:13:24;11.20;;;2.52;;
36253;SDS011;22291;52.250;21.228;2023-02-18T10:15:54;16.65;;;3.80;;
36253;SDS011;22291;52.250;21.228;2023-02-18T10:18:28;7.22;;;2.20;;
36253;SDS011;22291;52.250;21.228;2023-02-18T10:21:09;9.78;;;2.20;;
36253;SDS011;22291;52.250;21.228;2023-02-18T10:23:42;10.03;;;2.40;;
36253;SDS011;22291;52.250;21.228;2023-02-18T10:26:27;10.78;;;2.50;;
36253;SDS011;22291;52.250;21.228;2023-02-18T10:29:00;8.90;;;2.40;;
36253;SDS011;22291;52.250;21.228;2023-02-18T10:31:35;9.88;;;3.10;;
36253;SDS011;22291;52.250;21.228;2023-02-18T10:34:46;12.33;;;2.33;;
36253;SDS011;22291;52.250;21.228;2023-02-18T10:36:46;12.37;;;2.90;;
36253;SDS011;22291;52.250;21.228;2023-02-18T10:39:26;14.45;;;3.52;;
36253;SDS011;22291;52.250;21.228;2023-02-18T10:45:12;16.02;;;2.55;;
36253;SDS011;22291;52.250;21.228;2023-02-18T10:50:48;12.00;;;2.85;;
36253;SDS011;22291;52.250;21.228;2023-02-18T10:53:31;12.50;;;2.60;;
36253;SDS011;22291;52.250;21.228;2023-02-18T10:56:01;14.85;;;2.65;;
36253;SDS011;22291;52.250;21.228;2023-02-18T10:58:34;18.30;;;5.05;;
36253;SDS011;22291;52.250;21.228;2023-02-18T11:03:48;12.60;;;3.37;;
36253;SDS011;22291;52.250;21.228;2023-02-18T11:09:47;10.13;;;2.40;;
36253;SDS011;22291;52.250;21.228;2023-02-18T11:12:01;14.85;;;3.10;;
36253;SDS011;22291;52.250;21.228;2023-02-18T11:14:50;17.35;;;4.47;;
36253;SDS011;22291;52.250;21.228;2023-02-18T11:19:53;15.00;;;3.98;;
36253;SDS011;22291;52.250;21.228;2023-02-18T11:22:30;20.48;;;5.15;;
36253;SDS011;22291;52.250;21.228;2023-02-18T11:25:03;15.03;;;3.12;;
36253;SDS011;22291;52.250;21.228;2023-02-18T11:27:40;14.33;;;3.42;;
36253;SDS011;22291;52.250;21.228;2023-02-18T11:30:24;23.42;;;5.97;;
36253;SDS011;22291;52.250;21.228;2023-02-18T11:33:23;15.95;;;2.77;;
36253;SDS011;22291;52.250;21.228;2023-02-18T11:35:52;8.18;;;2.25;;
36253;SDS011;22291;52.250;21.228;2023-02-18T11:41:03;13.90;;;4.40;;
36253;SDS011;22291;52.250;21.228;2023-02-18T11:43:35;16.10;;;3.87;;
36253;SDS011;22291;52.250;21.228;2023-02-18T11:46:13;17.48;;;3.98;;
36253;SDS011;22291;52.250;21.228;2023-02-18T11:48:43;15.00;;;3.83;;
36253;SDS011;22291;52.250;21.228;2023-02-18T11:51:19;15.28;;;2.85;;
36253;SDS011;22291;52.250;21.228;2023-02-18T11:54:00;12.10;;;2.85;;
36253;SDS011;22291;52.250;21.228;2023-02-18T11:56:33;13.13;;;3.83;;
36253;SDS011;22291;52.250;21.228;2023-02-18T11:59:02;12.47;;;3.05;;
36253;SDS011;22291;52.250;21.228;2023-02-18T12:01:49;14.45;;;4.22;;
36253;SDS011;22291;52.250;21.228;2023-02-18T12:04:28;15.13;;;3.50;;
36253;SDS011;22291;52.250;21.228;2023-02-18T12:10:17;18.98;;;3.65;;
36253;SDS011;22291;52.250;21.228;2023-02-18T12:13:37;14.55;;;3.80;;
36253;SDS011;22291;52.250;21.228;2023-02-18T12:21:40;19.62;;;4.08;;
36253;SDS011;22291;52.250;21.228;2023-02-18T12:24:24;17.57;;;3.98;;
36253;SDS011;22291;52.250;21.228;2023-02-18T12:30:02;17.45;;;4.78;;
36253;SDS011;22291;52.250;21.228;2023-02-18T12:33:32;11.93;;;3.80;;
36253;SDS011;22291;52.250;21.228;2023-02-18T12:53:03;13.43;;;3.17;;
36253;SDS011;22291;52.250;21.228;2023-02-18T13:12:45;8.40;;;2.65;;
36253;SDS011;22291;52.250;21.228;2023-02-18T13:15:52;9.23;;;3.15;;
36253;SDS011;22291;52.250;21.228;2023-02-18T13:18:40;14.00;;;3.55;;
36253;SDS011;22291;52.250;21.228;2023-02-18T13:21:14;15.60;;;2.55;;
36253;SDS011;22291;52.250;21.228;2023-02-18T13:26:26;10.35;;;3.83;;
36253;SDS011;22291;52.250;21.228;2023-02-18T13:29:09;10.93;;;3.15;;
36253;SDS011;22291;52.250;21.228;2023-02-18T13:32:02;12.10;;;2.90;;
36253;SDS011;22291;52.250;21.228;2023-02-18T13:40:54;11.15;;;2.65;;
36253;SDS011;22291;52.250;21.228;2023-02-18T13:46:10;11.97;;;3.40;;
36253;SDS011;22291;52.250;21.228;2023-02-18T13:51:46;14.28;;;2.92;;
36253;SDS011;22291;52.250;21.228;2023-02-18T13:59:40;13.38;;;3.65;;
36253;SDS011;22291;52.250;21.228;2023-02-18T14:07:37;11.45;;;2.65;;
36253;SDS011;22291;52.250;21.228;2023-02-18T14:20:50;18.32;;;3.87;;
36253;SDS011;22291;52.250;21.228;2023-02-18T14:26:24;11.80;;;3.47;;
36253;SDS011;22291;52.250;21.228;2023-02-18T14:28:52;10.98;;;3.22;;
36253;SDS011;22291;52.250;21.228;2023-02-18T14:34:23;10.05;;;3.12;;
36253;SDS011;22291;52.250;21.228;2023-02-18T14:48:51;12.70;;;3.62;;
36253;SDS011;22291;52.250;21.228;2023-02-18T14:51:28;14.70;;;3.62;;
36253;SDS011;22291;52.250;21.228;2023-02-18T14:54:06;10.93;;;3.17;;
36253;SDS011;22291;52.250;21.228;2023-02-18T14:56:31;13.80;;;4.08;;
36253;SDS011;22291;52.250;21.228;2023-02-18T14:59:09;17.67;;;2.92;;
36253;SDS011;22291;52.250;21.228;2023-02-18T15:01:40;14.90;;;3.35;;
36253;SDS011;22291;52.250;21.228;2023-02-18T15:04:10;11.97;;;3.00;;
36253;SDS011;22291;52.250;21.228;2023-02-18T15:06:38;12.33;;;3.87;;
36253;SDS011;22291;52.250;21.228;2023-02-18T15:09:20;14.33;;;4.03;;
36253;SDS011;22291;52.250;21.228;2023-02-18T15:11:58;13.88;;;3.85;;
36253;SDS011;22291;52.250;21.228;2023-02-18T15:17:02;15.65;;;4.20;;
36253;SDS011;22291;52.250;21.228;2023-02-18T15:19:41;13.30;;;3.80;;
36253;SDS011;22291;52.250;21.228;2023-02-18T15:22:13;13.03;;;3.62;;
36253;SDS011;22291;52.250;21.228;2023-02-18T15:24:42;14.73;;;3.45;;
36253;SDS011;22291;52.250;21.228;2023-02-18T15:27:23;8.68;;;2.92;;
36253;SDS011;22291;52.250;21.228;2023-02-18T15:29:58;8.00;;;2.30;;
36253;SDS011;22291;52.250;21.228;2023-02-18T15:32:53;5.20;;;2.10;;
36253;SDS011;22291;52.250;21.228;2023-02-18T15:35:27;5.00;;;1.95;;
36253;SDS011;22291;52.250;21.228;2023-02-18T15:37:59;14.13;;;2.95;;
36253;SDS011;22291;52.250;21.228;2023-02-18T15:40:28;10.75;;;2.37;;
36253;SDS011;22291;52.250;21.228;2023-02-18T15:43:03;11.15;;;2.35;;
36253;SDS011;22291;52.250;21.228;2023-02-18T15:45:39;13.28;;;3.95;;
36253;SDS011;22291;52.250;21.228;2023-02-18T15:48:30;8.00;;;2.65;;
36253;SDS011;22291;52.250;21.228;2023-02-18T15:50:56;7.40;;;2.67;;
36253;SDS011;22291;52.250;21.228;2023-02-18T15:53:35;10.13;;;3.60;;
36253;SDS011;22291;52.250;21.228;2023-02-18T15:56:08;9.88;;;3.20;;
36253;SDS011;22291;52.250;21.228;2023-02-18T15:58:41;11.08;;;3.00;;
36253;SDS011;22291;52.250;21.228;2023-02-18T16:01:30;6.50;;;2.80;;
36253;SDS011;22291;52.250;21.228;2023-02-18T16:03:51;3.67;;;2.40;;
36253;SDS011;22291;52.250;21.228;2023-02-18T16:06:27;6.35;;;2.70;;
36253;SDS011;22291;52.250;21.228;2023-02-18T16:11:59;11.57;;;4.17;;
36253;SDS011;22291;52.250;21.228;2023-02-18T16:14:34;15.65;;;4.97;;
36253;SDS011;22291;52.250;21.228;2023-02-18T16:19:48;9.48;;;3.72;;
36253;SDS011;22291;52.250;21.228;2023-02-18T16:22:36;11.88;;;3.50;;
36253;SDS011;22291;52.250;21.228;2023-02-18T16:25:16;8.95;;;3.70;;
36253;SDS011;22291;52.250;21.228;2023-02-18T16:28:03;13.05;;;4.25;;
36253;SDS011;22291;52.250;21.228;2023-02-18T16:30:28;9.40;;;3.52;;
36253;SDS011;22291;52.250;21.228;2023-02-18T16:33:01;7.17;;;3.12;;
36253;SDS011;22291;52.250;21.228;2023-02-18T16:35:29;6.12;;;2.75;;
36253;SDS011;22291;52.250;21.228;2023-02-18T16:37:59;8.38;;;2.55;;
36253;SDS011;22291;52.250;21.228;2023-02-18T16:40:32;5.42;;;3.10;;
36253;SDS011;22291;52.250;21.228;2023-02-18T16:43:11;4.55;;;2.10;;
36253;SDS011;22291;52.250;21.228;2023-02-18T16:45:47;8.68;;;2.87;;
36253;SDS011;22291;52.250;21.228;2023-02-18T16:50:54;6.08;;;2.30;;
36253;SDS011;22291;52.250;21.228;2023-02-18T16:53:24;6.35;;;2.60;;
36253;SDS011;22291;52.250;21.228;2023-02-18T16:55:52;10.55;;;3.10;;
36253;SDS011;22291;52.250;21.228;2023-02-18T16:58:18;10.08;;;4.00;;
36253;SDS011;22291;52.250;21.228;2023-02-18T17:00:47;9.58;;;4.72;;
36253;SDS011;22291;52.250;21.228;2023-02-18T17:03:19;10.32;;;4.25;;
36253;SDS011;22291;52.250;21.228;2023-02-18T17:05:46;12.00;;;5.03;;
36253;SDS011;22291;52.250;21.228;2023-02-18T17:08:15;15.10;;;5.55;;
36253;SDS011;22291;52.250;21.228;2023-02-18T17:10:55;13.85;;;5.22;;
36253;SDS011;22291;52.250;21.228;2023-02-18T17:13:23;15.75;;;5.58;;
36253;SDS011;22291;52.250;21.228;2023-02-18T17:15:56;18.17;;;7.08;;
36253;SDS011;22291;52.250;21.228;2023-02-18T17:18:24;20.17;;;7.58;;
36253;SDS011;22291;52.250;21.228;2023-02-18T17:20:52;23.38;;;7.78;;
36253;SDS011;22291;52.250;21.228;2023-02-18T17:25:51;13.35;;;6.80;;
36253;SDS011;22291;52.250;21.228;2023-02-18T17:28:18;14.80;;;6.27;;
36253;SDS011;22291;52.250;21.228;2023-02-18T17:30:56;13.13;;;6.45;;
36253;SDS011;22291;52.250;21.228;2023-02-18T17:33:24;9.40;;;5.20;;
36253;SDS011;22291;52.250;21.228;2023-02-18T17:35:52;8.40;;;4.22;;
36253;SDS011;22291;52.250;21.228;2023-02-18T17:38:21;12.82;;;5.15;;
36253;SDS011;22291;52.250;21.228;2023-02-18T17:40:49;11.55;;;5.08;;
36253;SDS011;22291;52.250;21.228;2023-02-18T17:43:16;10.28;;;5.15;;
36253;SDS011;22291;52.250;21.228;2023-02-18T17:45:51;13.22;;;5.85;;